createdAt,value
2018-07-23T00:01:19.101Z,12.63
2018-07-23T00:03:46.630Z,12.33
2018-07-23T00:06:14.275Z,13.90
2018-07-23T00:08:41.871Z,14.30
2018-07-23T00:11:09.665Z,13.07
2018-07-23T00:13:37.246Z,13.60
2018-07-23T00:16:04.949Z,15.43
2018-07-23T00:18:32.516Z,16.13
2018-07-23T00:21:00.089Z,13.93
2018-07-23T00:23:27.670Z,14.90
2018-07-23T00:25:55.285Z,14.77
2018-07-23T00:28:22.894Z,15.00
2018-07-23T00:30:50.552Z,16.33
2018-07-23T00:33:18.144Z,16.27
2018-07-23T00:35:45.770Z,14.90
2018-07-23T00:38:13.358Z,15.80
2018-07-23T00:40:40.949Z,14.90
2018-07-23T00:43:08.586Z,16.20
2018-07-23T00:45:36.147Z,14.43
2018-07-23T00:48:03.735Z,15.00
2018-07-23T00:50:31.333Z,15.90
2018-07-23T00:52:58.912Z,15.20
2018-07-23T00:55:26.552Z,14.80
2018-07-23T00:57:54.161Z,15.00
2018-07-23T01:00:21.724Z,15.83
2018-07-23T01:02:49.313Z,15.97
2018-07-23T01:05:16.878Z,14.23
2018-07-23T01:07:44.422Z,15.07
2018-07-23T01:10:11.988Z,16.30
2018-07-23T01:12:39.562Z,15.40
2018-07-23T01:15:07.206Z,17.07
2018-07-23T01:17:34.802Z,15.23
2018-07-23T01:20:02.369Z,15.70
2018-07-23T01:22:29.949Z,15.93
2018-07-23T01:24:58.282Z,16.13
2018-07-23T01:27:25.893Z,16.27
2018-07-23T01:29:53.450Z,16.43
2018-07-23T01:32:21.286Z,15.53
2018-07-23T01:34:49.018Z,16.50
2018-07-23T01:37:17.265Z,15.80
2018-07-23T01:39:44.838Z,16.77
2018-07-23T01:42:12.541Z,16.20
2018-07-23T01:44:40.061Z,16.27
2018-07-23T01:47:08.806Z,17.03
2018-07-23T01:49:36.644Z,18.40
2018-07-23T01:52:04.548Z,16.47
2018-07-23T01:54:32.161Z,16.10
2018-07-23T01:56:59.863Z,16.10
2018-07-23T01:59:27.473Z,15.07
2018-07-23T02:01:55.072Z,16.33
2018-07-23T02:04:22.609Z,16.97
2018-07-23T02:06:50.162Z,18.17
2018-07-23T02:09:17.738Z,17.23
2018-07-23T02:11:45.331Z,16.50
2018-07-23T02:14:12.904Z,17.40
2018-07-23T02:16:40.485Z,17.67
2018-07-23T02:19:08.051Z,16.97
2018-07-23T02:21:36.519Z,17.60
2018-07-23T02:24:04.758Z,17.60
2018-07-23T02:26:32.316Z,16.90
2018-07-23T02:28:59.910Z,16.00
2018-07-23T02:31:27.573Z,16.10
2018-07-23T02:33:55.116Z,16.40
2018-07-23T02:36:22.692Z,16.83
2018-07-23T02:38:50.262Z,15.60
2018-07-23T02:41:17.971Z,16.17
2018-07-23T02:43:45.554Z,15.50
2018-07-23T02:46:13.141Z,16.00
2018-07-23T02:48:40.766Z,15.00
2018-07-23T02:51:08.425Z,14.70
2018-07-23T02:53:35.973Z,16.10
2018-07-23T02:56:03.644Z,16.10
2018-07-23T02:58:31.280Z,15.80
2018-07-23T03:00:58.857Z,17.37
2018-07-23T03:03:26.470Z,16.63
2018-07-23T03:05:54.069Z,16.73
2018-07-23T03:08:21.731Z,17.33
2018-07-23T03:10:49.335Z,18.00
2018-07-23T03:13:16.906Z,18.17
2018-07-23T03:15:44.510Z,18.30
2018-07-23T03:18:12.105Z,19.30
2018-07-23T03:20:39.710Z,19.40
2018-07-23T03:23:07.270Z,18.90
2018-07-23T03:25:34.841Z,19.27
2018-07-23T03:28:02.401Z,16.77
2018-07-23T03:30:29.985Z,17.47
2018-07-23T03:32:57.682Z,19.43
2018-07-23T03:35:25.309Z,19.70
2018-07-23T03:37:52.954Z,19.00
2018-07-23T03:40:20.556Z,19.70
2018-07-23T03:42:48.120Z,17.50
2018-07-23T03:45:15.722Z,19.37
2018-07-23T03:47:43.344Z,18.10
2018-07-23T03:50:10.952Z,18.47
2018-07-23T03:52:38.618Z,16.10
2018-07-23T03:55:06.234Z,18.17
2018-07-23T03:57:33.805Z,16.73
2018-07-23T04:00:01.414Z,17.43
2018-07-23T04:02:29.019Z,18.17
2018-07-23T04:04:56.641Z,16.27
2018-07-23T04:07:24.192Z,15.70
2018-07-23T04:09:51.847Z,15.87
2018-07-23T04:12:19.423Z,15.60
2018-07-23T04:14:46.998Z,15.03
2018-07-23T04:17:14.585Z,15.27
2018-07-23T04:19:42.169Z,15.53
2018-07-23T04:22:09.761Z,15.07
2018-07-23T04:24:37.339Z,16.60
2018-07-23T04:27:04.889Z,15.83
2018-07-23T04:29:32.482Z,16.60
2018-07-23T04:32:00.086Z,16.50
2018-07-23T04:34:27.659Z,15.10
2018-07-23T04:36:55.264Z,16.13
2018-07-23T04:39:22.840Z,16.20
2018-07-23T04:41:50.458Z,14.97
2018-07-23T04:44:18.026Z,14.80
2018-07-23T04:46:45.624Z,14.07
2018-07-23T04:49:13.244Z,15.43
2018-07-23T04:51:40.835Z,14.37
2018-07-23T04:54:08.418Z,14.50
2018-07-23T04:56:36.027Z,15.20
2018-07-23T04:59:03.656Z,14.07
2018-07-23T05:01:31.278Z,13.90
2018-07-23T05:03:58.829Z,14.50
2018-07-23T05:06:26.442Z,15.27
2018-07-23T05:08:53.995Z,15.17
2018-07-23T05:11:21.585Z,15.07
2018-07-23T05:13:49.139Z,14.30
2018-07-23T05:16:16.980Z,14.97
2018-07-23T05:18:44.572Z,14.20
2018-07-23T05:21:12.201Z,14.20
2018-07-23T05:23:39.751Z,15.10
2018-07-23T05:26:07.497Z,15.17
2018-07-23T05:28:35.096Z,14.70
2018-07-23T05:31:02.683Z,14.60
2018-07-23T05:33:30.250Z,15.03
2018-07-23T05:35:57.800Z,15.83
2018-07-23T05:38:25.412Z,16.43
2018-07-23T05:40:52.988Z,15.43
2018-07-23T05:43:20.546Z,16.80
2018-07-23T05:45:48.124Z,16.30
2018-07-23T05:48:15.645Z,16.10
2018-07-23T05:50:43.234Z,14.13
2018-07-23T05:53:10.825Z,14.83
2018-07-23T05:55:38.388Z,13.73
2018-07-23T05:58:06.013Z,13.20
2018-07-23T06:00:33.604Z,12.67
2018-07-23T06:03:01.149Z,12.50
2018-07-23T06:05:28.737Z,13.63
2018-07-23T06:07:56.364Z,12.93
2018-07-23T06:10:23.957Z,12.43
2018-07-23T06:12:51.514Z,11.90
2018-07-23T06:15:19.095Z,12.93
2018-07-23T06:17:46.676Z,12.17
2018-07-23T06:20:14.290Z,11.13
2018-07-23T06:22:42.166Z,12.67
2018-07-23T06:25:09.895Z,12.03
2018-07-23T06:27:37.494Z,11.20
2018-07-23T06:30:06.393Z,12.40
2018-07-23T06:32:33.961Z,11.50
2018-07-23T06:35:01.577Z,13.20
2018-07-23T06:37:29.155Z,12.30
2018-07-23T06:39:56.690Z,13.10
2018-07-23T06:42:24.328Z,13.00
2018-07-23T06:44:52.022Z,14.13
2018-07-23T06:47:19.557Z,13.10
2018-07-23T06:49:47.129Z,13.37
2018-07-23T06:52:14.677Z,12.83
2018-07-23T06:54:42.184Z,13.53
2018-07-23T06:57:09.737Z,12.57
2018-07-23T06:59:37.316Z,12.93
2018-07-23T07:02:05.080Z,13.23
2018-07-23T07:04:32.634Z,10.90
2018-07-23T07:07:00.197Z,11.50
2018-07-23T07:09:27.760Z,12.07
2018-07-23T07:11:55.317Z,12.50
2018-07-23T07:14:22.855Z,12.23
2018-07-23T07:16:50.440Z,12.00
2018-07-23T07:19:18.018Z,11.57
2018-07-23T07:21:45.795Z,11.77
2018-07-23T07:24:13.441Z,12.33
2018-07-23T07:26:41.096Z,11.73
2018-07-23T07:29:08.667Z,10.83
2018-07-23T07:31:36.471Z,10.13
2018-07-23T07:34:04.034Z,11.20
2018-07-23T07:36:31.601Z,11.63
2018-07-23T07:38:59.196Z,10.43
2018-07-23T07:41:26.810Z,10.30
2018-07-23T07:43:54.424Z,11.17
2018-07-23T07:46:22.052Z,9.93
2018-07-23T07:48:49.628Z,11.40
2018-07-23T07:51:17.229Z,12.20
2018-07-23T07:53:44.815Z,10.73
2018-07-23T07:56:12.502Z,11.33
2018-07-23T07:58:40.057Z,11.70
2018-07-23T08:01:07.640Z,12.30
2018-07-23T08:03:35.225Z,11.53
2018-07-23T08:06:02.789Z,11.20
2018-07-23T08:08:30.399Z,10.27
2018-07-23T08:10:57.980Z,12.07
2018-07-23T08:13:25.848Z,10.13
2018-07-23T08:15:53.445Z,9.80
2018-07-23T08:18:20.995Z,11.50
2018-07-23T08:20:48.577Z,9.67
2018-07-23T08:23:16.219Z,10.40
2018-07-23T08:25:43.822Z,10.50
2018-07-23T08:28:11.492Z,10.20
2018-07-23T08:30:39.049Z,10.20
2018-07-23T08:33:06.606Z,10.17
2018-07-23T08:35:34.249Z,11.20
2018-07-23T08:38:02.069Z,10.40
2018-07-23T08:40:29.664Z,9.43
2018-07-23T08:42:57.216Z,10.50
2018-07-23T08:45:24.810Z,10.33
2018-07-23T08:47:52.419Z,10.83
2018-07-23T08:50:19.996Z,9.33
2018-07-23T08:52:47.602Z,9.30
2018-07-23T08:55:15.226Z,10.00
2018-07-23T08:57:42.785Z,9.47
2018-07-23T09:00:10.338Z,8.70
2018-07-23T09:02:37.932Z,10.30
2018-07-23T09:05:05.977Z,8.33
2018-07-23T09:07:33.563Z,8.40
2018-07-23T09:10:01.102Z,7.67
2018-07-23T09:12:28.676Z,8.23
2018-07-23T09:14:56.272Z,8.10
2018-07-23T09:17:23.934Z,7.90
2018-07-23T09:19:51.543Z,8.73
2018-07-23T09:22:19.146Z,8.23
2018-07-23T09:24:46.765Z,7.90
2018-07-23T09:27:14.391Z,8.40
2018-07-23T09:29:41.967Z,8.50
2018-07-23T09:32:09.489Z,8.77
2018-07-23T09:34:37.109Z,8.50
2018-07-23T09:37:04.688Z,7.97
2018-07-23T09:39:32.216Z,8.10
2018-07-23T09:42:00.050Z,8.33
2018-07-23T09:44:27.584Z,7.77
2018-07-23T09:46:55.138Z,8.47
2018-07-23T09:49:22.710Z,7.80
2018-07-23T09:51:50.256Z,8.30
2018-07-23T09:54:17.783Z,8.37
2018-07-23T09:56:45.331Z,8.00
2018-07-23T09:59:13.236Z,7.83
2018-07-23T10:01:40.849Z,8.10
2018-07-23T10:04:08.410Z,8.93
2018-07-23T10:06:35.999Z,7.97
2018-07-23T10:09:04.154Z,8.13
2018-07-23T10:11:31.714Z,8.90
2018-07-23T10:13:59.259Z,8.00
2018-07-23T10:16:26.826Z,7.73
2018-07-23T10:18:54.334Z,7.50
2018-07-23T10:21:21.941Z,8.70
2018-07-23T10:23:49.506Z,7.30
2018-07-23T10:26:17.063Z,7.80
2018-07-23T10:28:44.596Z,9.00
2018-07-23T10:31:12.177Z,8.30
2018-07-23T10:33:39.739Z,8.20
2018-07-23T10:36:07.345Z,8.60
2018-07-23T10:38:34.907Z,8.13
2018-07-23T10:41:02.450Z,8.00
2018-07-23T10:43:30.047Z,9.23
2018-07-23T10:45:57.590Z,7.87
2018-07-23T10:48:25.131Z,8.27
2018-07-23T10:50:52.716Z,7.60
2018-07-23T10:53:20.277Z,8.07
2018-07-23T10:55:47.817Z,8.80
2018-07-23T10:58:15.374Z,7.80
2018-07-23T11:00:42.931Z,8.40
2018-07-23T11:03:10.518Z,8.40
2018-07-23T11:05:38.091Z,8.03
2018-07-23T11:08:05.814Z,8.60
2018-07-23T11:10:33.366Z,9.53
2018-07-23T11:13:00.925Z,8.20
2018-07-23T11:15:28.534Z,8.90
2018-07-23T11:17:56.115Z,8.20
2018-07-23T11:20:23.721Z,8.27
2018-07-23T11:22:51.315Z,9.60
2018-07-23T11:25:39.178Z,8.63
2018-07-23T11:27:46.505Z,8.80
2018-07-23T11:30:14.082Z,8.80
2018-07-23T11:32:41.698Z,8.80
2018-07-23T11:35:09.256Z,9.53
2018-07-23T11:37:36.833Z,9.23
2018-07-23T11:40:04.682Z,8.83
2018-07-23T11:42:32.259Z,9.53
2018-07-23T11:44:59.833Z,8.60
2018-07-23T11:47:27.398Z,8.57
2018-07-23T11:49:55.106Z,9.97
2018-07-23T11:52:22.699Z,9.20
2018-07-23T11:54:50.285Z,9.00
2018-07-23T11:57:17.886Z,10.47
2018-07-23T11:59:45.496Z,9.60
2018-07-23T12:02:13.134Z,8.20
2018-07-23T12:04:40.757Z,8.30
2018-07-23T12:07:08.648Z,8.50
2018-07-23T12:09:36.186Z,8.80
2018-07-23T12:12:03.760Z,9.40
2018-07-23T12:14:31.329Z,8.53
2018-07-23T12:16:58.944Z,8.13
2018-07-23T12:19:26.493Z,7.80
2018-07-23T12:21:54.093Z,9.13
2018-07-23T12:24:21.706Z,8.10
2018-07-23T12:26:50.462Z,7.70
2018-07-23T12:29:18.048Z,8.80
2018-07-23T12:31:45.625Z,7.00
2018-07-23T12:34:13.248Z,8.37
2018-07-23T12:36:41.025Z,8.00
2018-07-23T12:39:09.982Z,8.57
2018-07-23T12:41:37.547Z,8.10
2018-07-23T12:44:05.130Z,7.80
2018-07-23T12:46:32.674Z,8.20
2018-07-23T12:49:00.236Z,8.30
2018-07-23T12:51:27.834Z,8.47
2018-07-23T12:53:55.523Z,8.03
2018-07-23T12:56:23.129Z,8.57
2018-07-23T12:58:50.683Z,9.00
2018-07-23T13:01:18.301Z,9.50
2018-07-23T13:03:46.329Z,10.10
2018-07-23T13:06:14.145Z,10.30
2018-07-23T13:08:41.725Z,10.43
2018-07-23T13:11:09.296Z,9.20
2018-07-23T13:13:36.960Z,9.30
2018-07-23T13:16:04.530Z,10.00
2018-07-23T13:18:32.148Z,9.90
2018-07-23T13:20:59.840Z,9.70
2018-07-23T13:23:27.443Z,10.57
2018-07-23T13:25:54.976Z,10.73
2018-07-23T13:28:22.586Z,9.90
2018-07-23T13:30:50.180Z,10.50
2018-07-23T13:33:17.764Z,11.37
2018-07-23T13:35:45.438Z,10.73
2018-07-23T13:38:13.062Z,10.80
2018-07-23T13:40:40.711Z,11.63
2018-07-23T13:43:08.357Z,10.80
2018-07-23T13:45:35.982Z,10.70
2018-07-23T13:48:03.608Z,10.63
2018-07-23T13:50:31.461Z,11.43
2018-07-23T13:52:59.037Z,10.80
2018-07-23T13:55:26.984Z,10.77
2018-07-23T13:57:54.580Z,11.37
2018-07-23T14:00:22.196Z,10.87
2018-07-23T14:02:49.775Z,10.70
2018-07-23T14:05:17.349Z,10.53
2018-07-23T14:07:44.902Z,10.33
2018-07-23T14:10:12.762Z,10.30
2018-07-23T14:12:40.628Z,10.03
2018-07-23T14:15:08.384Z,12.00
2018-07-23T14:17:36.013Z,10.50
2018-07-23T14:20:03.720Z,9.73
2018-07-23T14:22:31.387Z,10.77
2018-07-23T14:24:59.062Z,10.13
2018-07-23T14:27:26.820Z,9.20
2018-07-23T14:29:54.763Z,9.13
2018-07-23T14:32:22.555Z,9.17
2018-07-23T14:34:50.407Z,8.97
2018-07-23T14:37:19.782Z,9.07
2018-07-23T14:39:47.785Z,8.87
2018-07-23T14:42:15.735Z,9.53
2018-07-23T14:44:43.455Z,9.10
2018-07-23T14:47:11.284Z,9.70
2018-07-23T14:49:39.159Z,9.97
2018-07-23T14:52:07.143Z,9.67
2018-07-23T14:54:34.915Z,9.43
2018-07-23T14:57:02.817Z,10.27
2018-07-23T14:59:30.861Z,10.53
2018-07-23T15:01:58.679Z,10.20
2018-07-23T15:04:26.505Z,9.73
2018-07-23T15:06:54.257Z,10.20
2018-07-23T15:09:22.086Z,9.10
2018-07-23T15:11:49.867Z,10.00
2018-07-23T15:14:17.775Z,8.73
2018-07-23T15:16:45.587Z,9.73
2018-07-23T15:19:13.432Z,9.27
2018-07-23T15:21:41.249Z,8.77
2018-07-23T15:24:09.043Z,9.90
2018-07-23T15:26:37.090Z,9.47
2018-07-23T15:29:04.921Z,9.17
2018-07-23T15:31:32.740Z,9.80
2018-07-23T15:34:00.515Z,9.37
2018-07-23T15:36:28.337Z,9.63
2018-07-23T15:38:56.128Z,10.00
2018-07-23T15:41:23.968Z,9.50
2018-07-23T15:43:51.911Z,10.07
2018-07-23T15:46:19.866Z,9.30
2018-07-23T15:48:47.667Z,8.47
2018-07-23T15:51:15.460Z,9.47
2018-07-23T15:53:43.272Z,8.70
2018-07-23T15:56:11.081Z,8.97
2018-07-23T15:58:38.912Z,9.40
2018-07-23T16:01:06.696Z,8.73
2018-07-23T16:03:34.548Z,10.13
2018-07-23T16:06:02.338Z,9.93
2018-07-23T16:08:29.945Z,8.60
2018-07-23T16:10:57.584Z,9.27
2018-07-23T16:13:25.190Z,10.37
2018-07-23T16:15:52.761Z,9.70
2018-07-23T16:18:20.307Z,9.40
2018-07-23T16:20:47.904Z,9.30
2018-07-23T16:23:15.433Z,9.13
2018-07-23T16:25:43.009Z,10.00
2018-07-23T16:28:10.599Z,9.33
2018-07-23T16:30:38.194Z,10.90
2018-07-23T16:33:05.980Z,9.90
2018-07-23T16:35:33.579Z,10.23
2018-07-23T16:38:04.016Z,10.77
2018-07-23T16:40:31.647Z,9.30
2018-07-23T16:42:59.253Z,9.37
2018-07-23T16:45:26.843Z,10.23
2018-07-23T16:47:54.466Z,10.43
2018-07-23T16:50:22.077Z,10.10
2018-07-23T16:52:49.698Z,10.70
2018-07-23T16:55:17.296Z,10.20
2018-07-23T16:57:44.969Z,10.50
2018-07-23T17:00:12.566Z,10.63
2018-07-23T17:02:40.159Z,11.10
2018-07-23T17:05:07.736Z,10.30
2018-07-23T17:07:35.307Z,10.37
2018-07-23T17:10:02.933Z,10.37
2018-07-23T17:12:30.533Z,9.73
2018-07-23T17:14:58.120Z,10.57
2018-07-23T17:17:25.808Z,11.47
2018-07-23T17:19:53.456Z,10.53
2018-07-23T17:22:21.049Z,10.90
2018-07-23T17:24:48.629Z,11.50
2018-07-23T17:27:16.195Z,11.43
2018-07-23T17:29:43.823Z,11.00
2018-07-23T17:32:11.376Z,10.90
2018-07-23T17:34:38.950Z,11.10
2018-07-23T17:37:06.545Z,11.70
2018-07-23T17:39:34.098Z,11.50
2018-07-23T17:42:01.669Z,11.00
2018-07-23T17:44:29.323Z,10.73
2018-07-23T17:46:56.902Z,11.43
2018-07-23T17:49:24.519Z,11.50
2018-07-23T17:51:52.120Z,11.83
2018-07-23T17:54:19.741Z,11.63
2018-07-23T17:56:47.321Z,11.83
2018-07-23T17:59:14.968Z,11.93
2018-07-23T18:01:42.532Z,11.40
2018-07-23T18:04:10.144Z,12.30
2018-07-23T18:06:38.730Z,11.23
2018-07-23T18:09:07.507Z,11.00
2018-07-23T18:11:35.142Z,10.80
2018-07-23T18:14:02.803Z,11.17
2018-07-23T18:16:30.402Z,10.90
2018-07-23T18:18:58.002Z,11.10
2018-07-23T18:21:25.597Z,11.50
2018-07-23T18:23:53.229Z,10.10
2018-07-23T18:26:20.817Z,10.97
2018-07-23T18:28:48.465Z,10.60
2018-07-23T18:31:16.146Z,10.63
2018-07-23T18:33:43.747Z,11.30
2018-07-23T18:36:11.344Z,10.10
2018-07-23T18:38:39.111Z,10.90
2018-07-23T18:41:06.630Z,11.10
2018-07-23T18:43:34.341Z,10.60
2018-07-23T18:46:01.953Z,10.60
2018-07-23T18:49:35.036Z,11.23
2018-07-23T18:52:02.740Z,10.30
2018-07-23T18:54:31.478Z,11.80
2018-07-23T18:57:01.369Z,11.60
2018-07-23T18:59:29.380Z,13.77
2018-07-23T19:01:58.007Z,10.83
2018-07-23T19:04:25.711Z,10.37
2018-07-23T19:06:54.093Z,11.50
2018-07-23T19:09:23.246Z,10.97
2018-07-23T19:11:51.865Z,10.83
2018-07-23T19:14:35.933Z,11.20
2018-07-23T19:17:04.781Z,11.17
2018-07-23T19:19:32.563Z,10.70
2018-07-23T19:22:00.159Z,10.60
2018-07-23T19:24:27.757Z,11.00
2018-07-23T19:26:55.429Z,12.70
2018-07-23T19:29:23.194Z,10.83
2018-07-23T19:31:50.835Z,11.00
2018-07-23T19:34:18.471Z,11.43
2018-07-23T19:36:48.908Z,11.80
2018-07-23T19:39:17.669Z,11.60
2018-07-23T19:41:51.378Z,12.30
2018-07-23T19:44:19.329Z,10.83
2018-07-23T19:46:46.994Z,11.77
2018-07-23T19:49:14.696Z,11.23
2018-07-23T19:51:42.378Z,11.07
2018-07-23T19:54:10.453Z,12.17
2018-07-23T19:56:38.126Z,12.17
2018-07-23T19:59:05.877Z,11.73
2018-07-23T20:01:33.613Z,11.50
2018-07-23T20:04:01.279Z,11.70
2018-07-23T20:06:29.303Z,11.53
2018-07-23T20:08:57.982Z,10.93
2018-07-23T20:11:27.316Z,12.00
2018-07-23T20:13:55.115Z,11.23
2018-07-23T20:16:22.763Z,12.27
2018-07-23T20:18:50.388Z,11.30
2018-07-23T20:21:18.070Z,11.30
2018-07-23T20:23:45.817Z,11.70
2018-07-23T20:26:13.472Z,11.40
2018-07-23T20:28:41.178Z,12.37
2018-07-23T20:31:08.778Z,12.33
2018-07-23T20:33:36.492Z,11.23
2018-07-23T20:36:04.533Z,12.50
2018-07-23T20:38:32.701Z,12.07
2018-07-23T20:41:00.536Z,11.73
2018-07-23T20:43:29.014Z,12.93
2018-07-23T20:45:57.118Z,13.03
2018-07-23T20:48:24.752Z,12.10
2018-07-23T20:50:52.470Z,12.27
2018-07-23T20:53:20.222Z,11.60
2018-07-23T20:55:47.914Z,12.73
2018-07-23T20:58:15.526Z,12.43
2018-07-23T21:00:43.157Z,12.13
2018-07-23T21:03:10.873Z,11.87
2018-07-23T21:05:38.496Z,12.97
2018-07-23T21:08:06.141Z,12.60
2018-07-23T21:10:33.759Z,12.60
2018-07-23T21:13:01.570Z,13.83
2018-07-23T21:15:29.224Z,12.80
2018-07-23T21:17:56.820Z,13.20
2018-07-23T21:20:24.422Z,14.37
2018-07-23T21:22:52.060Z,13.80
2018-07-23T21:25:19.730Z,13.97
2018-07-23T21:27:47.385Z,13.43
2018-07-23T21:30:15.024Z,13.70
2018-07-23T21:32:42.671Z,14.70
2018-07-23T21:35:10.278Z,14.43
2018-07-23T21:37:37.947Z,13.63
2018-07-23T21:40:05.997Z,15.17
2018-07-23T21:42:33.631Z,14.67
2018-07-23T21:45:01.301Z,14.97
2018-07-23T21:47:28.949Z,15.13
2018-07-23T21:49:56.614Z,15.07
2018-07-23T21:52:24.191Z,15.40
2018-07-23T21:54:51.810Z,14.67
2018-07-23T21:57:19.432Z,15.80
2018-07-23T21:59:47.011Z,14.60
2018-07-23T22:02:14.596Z,15.30
2018-07-23T22:04:42.172Z,14.30
2018-07-23T22:07:09.824Z,15.27
2018-07-23T22:09:37.400Z,14.40
2018-07-23T22:12:04.977Z,13.93
2018-07-23T22:14:32.586Z,14.53
2018-07-23T22:17:00.203Z,14.17
2018-07-23T22:19:27.760Z,13.70
2018-07-23T22:21:55.401Z,14.30
2018-07-23T22:24:22.963Z,13.10
2018-07-23T22:26:50.532Z,13.40
2018-07-23T22:29:18.178Z,14.30
2018-07-23T22:31:45.834Z,14.00
2018-07-23T22:34:13.403Z,14.20
2018-07-23T22:36:40.998Z,14.27
2018-07-23T22:39:09.679Z,14.27
2018-07-23T22:41:37.441Z,15.70
2018-07-23T22:44:05.009Z,14.90
2018-07-23T22:46:32.602Z,15.23
2018-07-23T22:49:00.164Z,15.00
2018-07-23T22:51:27.768Z,14.70
2018-07-23T22:53:55.405Z,14.90
2018-07-23T22:56:23.008Z,16.00
2018-07-23T22:58:50.629Z,14.47
2018-07-23T23:01:18.744Z,15.50
2018-07-23T23:03:46.395Z,15.77
2018-07-23T23:06:13.988Z,14.70
2018-07-23T23:08:41.608Z,14.97
2018-07-23T23:11:09.172Z,14.80
2018-07-23T23:13:36.773Z,14.93
2018-07-23T23:16:04.323Z,14.73
2018-07-23T23:18:31.882Z,15.13
2018-07-23T23:20:59.536Z,14.53
2018-07-23T23:23:27.192Z,15.37
2018-07-23T23:25:54.750Z,15.50
2018-07-23T23:28:22.321Z,15.30
2018-07-23T23:30:49.893Z,15.13
2018-07-23T23:33:17.461Z,15.07
2018-07-23T23:35:45.026Z,15.20
2018-07-23T23:38:12.582Z,16.20
2018-07-23T23:40:40.156Z,15.00
2018-07-23T23:43:07.744Z,15.13
2018-07-23T23:45:35.299Z,15.00
2018-07-23T23:48:02.877Z,14.57
2018-07-23T23:50:30.469Z,13.90
2018-07-23T23:52:58.098Z,14.13
2018-07-23T23:55:25.688Z,15.90
2018-07-23T23:57:53.261Z,15.50
